sensor_id;sensor_type;location;lat;lon;timestamp;pressure;altitude;pressure_sealevel;temperature;humidity
38716;BME280;24833;49.324;8.694;2023-04-06T00:01:03;100071.69;;;5.31;48.60
38716;BME280;24833;49.324;8.694;2023-04-06T00:03:30;100063.75;;;5.31;48.50
38716;BME280;24833;49.324;8.694;2023-04-06T00:05:57;100072.69;;;5.30;48.83
38716;BME280;24833;49.324;8.694;2023-04-06T00:08:25;100071.03;;;5.29;48.67
38716;BME280;24833;49.324;8.694;2023-04-06T00:10:52;100068.38;;;5.29;48.77
38716;BME280;24833;49.324;8.694;2023-04-06T00:13:19;100056.94;;;5.28;48.76
38716;BME280;24833;49.324;8.694;2023-04-06T00:15:46;100061.41;;;5.28;48.76
38716;BME280;24833;49.324;8.694;2023-04-06T00:18:13;100058.75;;;5.28;48.86
38716;BME280;24833;49.324;8.694;2023-04-06T00:20:40;100063.38;;;5.26;48.90
38716;BME280;24833;49.324;8.694;2023-04-06T00:23:07;100060.06;;;5.24;49.00
38716;BME280;24833;49.324;8.694;2023-04-06T00:25:35;100067.34;;;5.22;49.10
38716;BME280;24833;49.324;8.694;2023-04-06T00:28:02;100065.00;;;5.18;49.19
38716;BME280;24833;49.324;8.694;2023-04-06T00:30:30;100065.00;;;5.18;49.46
38716;BME280;24833;49.324;8.694;2023-04-06T00:32:57;100065.00;;;5.18;49.22
38716;BME280;24833;49.324;8.694;2023-04-06T00:35:24;100063.16;;;5.19;49.20
38716;BME280;24833;49.324;8.694;2023-04-06T00:37:51;100061.34;;;5.19;49.43
38716;BME280;24833;49.324;8.694;2023-04-06T00:40:18;100055.06;;;5.20;49.28
38716;BME280;24833;49.324;8.694;2023-04-06T00:42:45;100054.09;;;5.22;49.13
38716;BME280;24833;49.324;8.694;2023-04-06T00:45:12;100052.13;;;5.24;49.08
38716;BME280;24833;49.324;8.694;2023-04-06T00:47:40;100047.81;;;5.23;49.44
38716;BME280;24833;49.324;8.694;2023-04-06T00:50:07;100052.97;;;5.24;49.37
38716;BME280;24833;49.324;8.694;2023-04-06T00:52:34;100045.19;;;5.23;49.41
38716;BME280;24833;49.324;8.694;2023-04-06T00:55:03;100043.53;;;5.22;49.53
38716;BME280;24833;49.324;8.694;2023-04-06T00:57:31;100041.53;;;5.24;49.30
38716;BME280;24833;49.324;8.694;2023-04-06T00:59:58;100047.00;;;5.22;49.59
38716;BME280;24833;49.324;8.694;2023-04-06T01:02:26;100038.22;;;5.22;49.27
38716;BME280;24833;49.324;8.694;2023-04-06T01:04:54;100038.22;;;5.22;49.40
38716;BME280;24833;49.324;8.694;2023-04-06T01:07:27;100038.22;;;5.22;49.32
38716;BME280;24833;49.324;8.694;2023-04-06T01:10:11;100034.88;;;5.19;49.22
38716;BME280;24833;49.324;8.694;2023-04-06T01:12:38;100030.56;;;5.18;49.57
38716;BME280;24833;49.324;8.694;2023-04-06T01:15:12;100031.56;;;5.17;49.46
38716;BME280;24833;49.324;8.694;2023-04-06T01:17:43;100029.53;;;5.11;49.45
38716;BME280;24833;49.324;8.694;2023-04-06T01:20:14;100027.03;;;5.10;49.40
38716;BME280;24833;49.324;8.694;2023-04-06T01:22:41;100021.91;;;5.08;49.46
38716;BME280;24833;49.324;8.694;2023-04-06T01:25:09;100017.75;;;5.06;49.57
38716;BME280;24833;49.324;8.694;2023-04-06T01:27:42;100021.38;;;5.05;49.47
38716;BME280;24833;49.324;8.694;2023-04-06T01:30:22;100018.06;;;5.03;49.68
38716;BME280;24833;49.324;8.694;2023-04-06T01:32:53;100015.88;;;4.98;49.60
38716;BME280;24833;49.324;8.694;2023-04-06T01:35:34;100010.03;;;4.95;49.92
38716;BME280;24833;49.324;8.694;2023-04-06T01:38:11;100010.91;;;4.95;49.73
38716;BME280;24833;49.324;8.694;2023-04-06T01:40:38;100010.91;;;4.95;49.67
38716;BME280;24833;49.324;8.694;2023-04-06T01:43:05;100004.91;;;4.93;49.78
38716;BME280;24833;49.324;8.694;2023-04-06T01:45:40;100010.19;;;4.93;49.75
38716;BME280;24833;49.324;8.694;2023-04-06T01:48:16;100011.50;;;4.89;50.04
38716;BME280;24833;49.324;8.694;2023-04-06T01:50:43;100013.78;;;4.84;50.13
38716;BME280;24833;49.324;8.694;2023-04-06T01:53:14;100006.28;;;4.79;49.82
38716;BME280;24833;49.324;8.694;2023-04-06T01:55:44;100010.91;;;4.77;49.91
38716;BME280;24833;49.324;8.694;2023-04-06T01:58:18;100007.59;;;4.75;49.99
38716;BME280;24833;49.324;8.694;2023-04-06T02:00:45;100002.44;;;4.74;49.90
38716;BME280;24833;49.324;8.694;2023-04-06T02:03:12;100006.06;;;4.73;49.96
38716;BME280;24833;49.324;8.694;2023-04-06T02:05:42;99999.94;;;4.72;49.77
38716;BME280;24833;49.324;8.694;2023-04-06T02:08:29;99999.94;;;4.72;49.76
38716;BME280;24833;49.324;8.694;2023-04-06T02:10:57;100006.38;;;4.70;49.88
38716;BME280;24833;49.324;8.694;2023-04-06T02:13:30;99995.09;;;4.68;50.02
38716;BME280;24833;49.324;8.694;2023-04-06T02:15:57;99997.75;;;4.68;49.79
38716;BME280;24833;49.324;8.694;2023-04-06T02:18:27;99995.41;;;4.64;49.98
38716;BME280;24833;49.324;8.694;2023-04-06T02:20:55;99996.41;;;4.63;50.36
38716;BME280;24833;49.324;8.694;2023-04-06T02:23:22;99994.75;;;4.62;50.21
38716;BME280;24833;49.324;8.694;2023-04-06T02:25:49;100001.97;;;4.60;50.26
38716;BME280;24833;49.324;8.694;2023-04-06T02:28:16;99992.38;;;4.59;50.20
38716;BME280;24833;49.324;8.694;2023-04-06T02:30:43;99995.03;;;4.59;50.34
38716;BME280;24833;49.324;8.694;2023-04-06T02:33:11;99993.38;;;4.58;50.27
38716;BME280;24833;49.324;8.694;2023-04-06T02:35:44;99989.06;;;4.57;50.20
38716;BME280;24833;49.324;8.694;2023-04-06T02:38:13;99996.19;;;4.57;50.10
38716;BME280;24833;49.324;8.694;2023-04-06T02:40:39;99985.75;;;4.55;50.51
38716;BME280;24833;49.324;8.694;2023-04-06T02:43:25;99983.41;;;4.52;50.31
38716;BME280;24833;49.324;8.694;2023-04-06T02:46:00;99986.38;;;4.49;50.38
38716;BME280;24833;49.324;8.694;2023-04-06T02:48:28;99983.72;;;4.49;50.33
38716;BME280;24833;49.324;8.694;2023-04-06T02:50:55;99982.06;;;4.48;50.68
38716;BME280;24833;49.324;8.694;2023-04-06T02:53:22;99978.72;;;4.46;50.37
38716;BME280;24833;49.324;8.694;2023-04-06T02:55:49;99983.19;;;4.46;50.72
38716;BME280;24833;49.324;8.694;2023-04-06T02:58:16;99977.06;;;4.45;50.61
38716;BME280;24833;49.324;8.694;2023-04-06T03:00:48;99975.56;;;4.43;50.76
38716;BME280;24833;49.324;8.694;2023-04-06T03:03:15;99974.88;;;4.41;50.97
38716;BME280;24833;49.324;8.694;2023-04-06T03:05:44;99976.84;;;4.38;51.16
38716;BME280;24833;49.324;8.694;2023-04-06T03:08:12;99972.69;;;4.36;51.17
38716;BME280;24833;49.324;8.694;2023-04-06T03:10:44;99971.03;;;4.35;50.91
38716;BME280;24833;49.324;8.694;2023-04-06T03:13:11;99972.16;;;4.32;51.04
38716;BME280;24833;49.324;8.694;2023-04-06T03:15:44;99981.88;;;4.32;50.79
38716;BME280;24833;49.324;8.694;2023-04-06T03:18:15;99977.75;;;4.29;50.85
38716;BME280;24833;49.324;8.694;2023-04-06T03:20:46;99984.16;;;4.27;51.05
38716;BME280;24833;49.324;8.694;2023-04-06T03:23:15;99979.16;;;4.24;51.10
38716;BME280;24833;49.324;8.694;2023-04-06T03:25:44;99986.28;;;4.23;50.70
38716;BME280;24833;49.324;8.694;2023-04-06T03:28:15;99983.78;;;4.22;50.74
38716;BME280;24833;49.324;8.694;2023-04-06T03:30:52;99979.63;;;4.19;50.76
38716;BME280;24833;49.324;8.694;2023-04-06T03:33:36;99989.66;;;4.16;51.13
38716;BME280;24833;49.324;8.694;2023-04-06T03:36:03;99999.53;;;4.14;50.87
38716;BME280;24833;49.324;8.694;2023-04-06T03:38:35;99991.75;;;4.12;51.08
38716;BME280;24833;49.324;8.694;2023-04-06T03:41:07;99992.06;;;4.09;51.33
38716;BME280;24833;49.324;8.694;2023-04-06T03:43:35;99987.91;;;4.06;51.02
38716;BME280;24833;49.324;8.694;2023-04-06T03:46:02;99990.69;;;4.05;50.98
38716;BME280;24833;49.324;8.694;2023-04-06T03:48:29;99992.81;;;4.01;51.32
38716;BME280;24833;49.324;8.694;2023-04-06T03:51:00;99984.50;;;3.96;51.58
38716;BME280;24833;49.324;8.694;2023-04-06T03:53:27;99983.78;;;3.94;51.37
38716;BME280;24833;49.324;8.694;2023-04-06T03:55:54;99995.34;;;3.93;51.39
38716;BME280;24833;49.324;8.694;2023-04-06T03:58:21;99983.28;;;3.91;51.52
38716;BME280;24833;49.324;8.694;2023-04-06T04:00:48;99991.34;;;3.89;51.90
38716;BME280;24833;49.324;8.694;2023-04-06T04:03:16;99985.66;;;3.84;52.41
38716;BME280;24833;49.324;8.694;2023-04-06T04:05:43;99992.75;;;3.83;52.57
38716;BME280;24833;49.324;8.694;2023-04-06T04:08:11;99998.19;;;3.82;52.16
38716;BME280;24833;49.324;8.694;2023-04-06T04:10:38;99995.56;;;3.82;52.00
38716;BME280;24833;49.324;8.694;2023-04-06T04:13:05;99998.31;;;3.80;52.13
38716;BME280;24833;49.324;8.694;2023-04-06T04:15:32;100006.41;;;3.79;51.77
38716;BME280;24833;49.324;8.694;2023-04-06T04:17:59;100011.97;;;3.76;52.19
38716;BME280;24833;49.324;8.694;2023-04-06T04:20:26;100015.59;;;3.75;52.28
38716;BME280;24833;49.324;8.694;2023-04-06T04:22:55;100031.88;;;3.70;52.34
38716;BME280;24833;49.324;8.694;2023-04-06T04:25:23;100026.03;;;3.67;51.99
38716;BME280;24833;49.324;8.694;2023-04-06T04:27:50;100028.16;;;3.63;52.32
38716;BME280;24833;49.324;8.694;2023-04-06T04:30:19;100027.75;;;3.58;52.44
38716;BME280;24833;49.324;8.694;2023-04-06T04:32:46;100031.53;;;3.55;52.40
38716;BME280;24833;49.324;8.694;2023-04-06T04:35:17;100024.03;;;3.51;52.39
38716;BME280;24833;49.324;8.694;2023-04-06T04:37:44;100028.63;;;3.49;52.58
38716;BME280;24833;49.324;8.694;2023-04-06T04:40:11;100037.63;;;3.46;52.65
38716;BME280;24833;49.324;8.694;2023-04-06T04:42:50;100030.03;;;3.43;52.11
38716;BME280;24833;49.324;8.694;2023-04-06T04:45:27;100039.91;;;3.41;52.63
38716;BME280;24833;49.324;8.694;2023-04-06T04:47:55;100035.19;;;3.35;52.91
38716;BME280;24833;49.324;8.694;2023-04-06T04:50:25;100038.50;;;3.27;52.53
38716;BME280;24833;49.324;8.694;2023-04-06T04:52:56;100038.97;;;3.23;52.71
38716;BME280;24833;49.324;8.694;2023-04-06T04:55:25;100037.16;;;3.14;53.16
38716;BME280;24833;49.324;8.694;2023-04-06T04:57:55;100043.41;;;3.13;52.47
38716;BME280;24833;49.324;8.694;2023-04-06T05:00:32;100043.84;;;3.08;53.48
38716;BME280;24833;49.324;8.694;2023-04-06T05:03:00;100040.38;;;3.08;52.81
38716;BME280;24833;49.324;8.694;2023-04-06T05:05:30;100042.31;;;3.06;53.16
38716;BME280;24833;49.324;8.694;2023-04-06T05:07:57;100045.78;;;3.06;52.83
38716;BME280;24833;49.324;8.694;2023-04-06T05:10:37;100047.56;;;3.06;52.15
38716;BME280;24833;49.324;8.694;2023-04-06T05:13:05;100050.22;;;3.06;52.90
38716;BME280;24833;49.324;8.694;2023-04-06T05:15:32;100046.91;;;3.04;52.68
38716;BME280;24833;49.324;8.694;2023-04-06T05:18:31;100053.81;;;3.05;52.64
38716;BME280;24833;49.324;8.694;2023-04-06T05:20:59;100038.84;;;3.05;52.65
38716;BME280;24833;49.324;8.694;2023-04-06T05:23:36;100048.56;;;3.05;52.97
38716;BME280;24833;49.324;8.694;2023-04-06T05:26:03;100049.53;;;3.04;52.77
38716;BME280;24833;49.324;8.694;2023-04-06T05:28:32;100045.78;;;3.06;52.53
38716;BME280;24833;49.324;8.694;2023-04-06T05:31:01;100051.03;;;3.06;52.82
38716;BME280;24833;49.324;8.694;2023-04-06T05:33:34;100050.06;;;3.07;53.21
38716;BME280;24833;49.324;8.694;2023-04-06T05:36:08;100049.13;;;3.08;52.84
38716;BME280;24833;49.324;8.694;2023-04-06T05:38:39;100049.94;;;3.09;52.55
38716;BME280;24833;49.324;8.694;2023-04-06T05:41:17;100052.69;;;3.07;52.87
38716;BME280;24833;49.324;8.694;2023-04-06T05:43:44;100065.78;;;3.09;53.89
38716;BME280;24833;49.324;8.694;2023-04-06T05:46:11;100058.44;;;3.03;54.81
38716;BME280;24833;49.324;8.694;2023-04-06T05:48:39;100059.66;;;2.98;54.03
38716;BME280;24833;49.324;8.694;2023-04-06T05:51:07;100072.84;;;2.98;54.14
38716;BME280;24833;49.324;8.694;2023-04-06T05:53:45;100060.78;;;2.96;54.23
38716;BME280;24833;49.324;8.694;2023-04-06T05:56:12;100066.06;;;2.96;54.60
38716;BME280;24833;49.324;8.694;2023-04-06T05:58:40;100060.78;;;2.96;54.37
38716;BME280;24833;49.324;8.694;2023-04-06T06:01:09;100071.19;;;2.97;54.29
38716;BME280;24833;49.324;8.694;2023-04-06T06:03:41;100063.44;;;2.96;54.80
38716;BME280;24833;49.324;8.694;2023-04-06T06:06:08;100064.94;;;2.98;53.74
38716;BME280;24833;49.324;8.694;2023-04-06T06:08:56;100066.59;;;2.99;53.37
38716;BME280;24833;49.324;8.694;2023-04-06T06:11:28;100068.16;;;3.02;53.07
38716;BME280;24833;49.324;8.694;2023-04-06T06:13:56;100068.25;;;3.00;55.10
38716;BME280;24833;49.324;8.694;2023-04-06T06:16:24;100065.75;;;2.99;54.81
38716;BME280;24833;49.324;8.694;2023-04-06T06:18:51;100069.13;;;3.01;55.35
38716;BME280;24833;49.324;8.694;2023-04-06T06:21:19;100066.88;;;3.06;54.93
38716;BME280;24833;49.324;8.694;2023-04-06T06:23:46;100074.38;;;3.11;55.13
38716;BME280;24833;49.324;8.694;2023-04-06T06:26:18;100077.44;;;3.16;55.00
38716;BME280;24833;49.324;8.694;2023-04-06T06:28:46;100078.25;;;3.26;56.12
38716;BME280;24833;49.324;8.694;2023-04-06T06:31:13;100072.69;;;3.29;54.52
38716;BME280;24833;49.324;8.694;2023-04-06T06:33:42;100078.78;;;3.39;56.18
38716;BME280;24833;49.324;8.694;2023-04-06T06:36:09;100083.63;;;3.44;55.17
38716;BME280;24833;49.324;8.694;2023-04-06T06:38:37;100070.69;;;3.50;54.88
38716;BME280;24833;49.324;8.694;2023-04-06T06:41:05;100076.25;;;3.57;54.99
38716;BME280;24833;49.324;8.694;2023-04-06T06:43:35;100079.81;;;3.66;55.14
38716;BME280;24833;49.324;8.694;2023-04-06T06:46:06;100078.13;;;3.74;55.39
38716;BME280;24833;49.324;8.694;2023-04-06T06:48:33;100080.91;;;3.82;55.08
38716;BME280;24833;49.324;8.694;2023-04-06T06:51:00;100083.63;;;3.91;55.18
38716;BME280;24833;49.324;8.694;2023-04-06T06:53:27;100084.56;;;3.99;55.21
38716;BME280;24833;49.324;8.694;2023-04-06T06:55:55;100086.63;;;4.05;55.18
38716;BME280;24833;49.324;8.694;2023-04-06T06:58:23;100080.75;;;4.12;54.76
38716;BME280;24833;49.324;8.694;2023-04-06T07:00:50;100080.69;;;4.21;55.42
38716;BME280;24833;49.324;8.694;2023-04-06T07:03:17;100082.91;;;4.26;55.12
38716;BME280;24833;49.324;8.694;2023-04-06T07:05:49;100094.56;;;4.33;54.99
38716;BME280;24833;49.324;8.694;2023-04-06T07:08:23;100083.25;;;4.41;55.29
38716;BME280;24833;49.324;8.694;2023-04-06T07:10:52;100084.19;;;4.49;55.33
38716;BME280;24833;49.324;8.694;2023-04-06T07:13:20;100086.09;;;4.57;55.45
38716;BME280;24833;49.324;8.694;2023-04-06T07:15:53;100077.09;;;4.68;55.08
38716;BME280;24833;49.324;8.694;2023-04-06T07:18:20;100081.50;;;4.77;55.24
38716;BME280;24833;49.324;8.694;2023-04-06T07:20:48;100085.59;;;4.89;55.40
38716;BME280;24833;49.324;8.694;2023-04-06T07:23:16;100087.31;;;4.98;55.55
38716;BME280;24833;49.324;8.694;2023-04-06T07:25:43;100088.53;;;5.04;54.97
38716;BME280;24833;49.324;8.694;2023-04-06T07:28:10;100090.78;;;5.16;55.25
38716;BME280;24833;49.324;8.694;2023-04-06T07:30:38;100088.72;;;5.28;55.06
38716;BME280;24833;49.324;8.694;2023-04-06T07:33:05;100081.69;;;5.37;55.06
38716;BME280;24833;49.324;8.694;2023-04-06T07:35:35;100078.75;;;5.48;54.98
38716;BME280;24833;49.324;8.694;2023-04-06T07:38:04;100082.97;;;5.59;55.00
38716;BME280;24833;49.324;8.694;2023-04-06T07:40:33;100084.69;;;5.68;55.00
38716;BME280;24833;49.324;8.694;2023-04-06T07:43:00;100085.59;;;5.77;54.87
38716;BME280;24833;49.324;8.694;2023-04-06T07:45:29;100081.97;;;5.86;54.71
38716;BME280;24833;49.324;8.694;2023-04-06T07:47:56;100079.94;;;5.97;54.55
38716;BME280;24833;49.324;8.694;2023-04-06T07:50:25;100084.28;;;6.07;54.78
38716;BME280;24833;49.324;8.694;2023-04-06T07:52:53;100084.16;;;6.16;54.99
38716;BME280;24833;49.324;8.694;2023-04-06T07:55:20;100091.81;;;6.27;54.53
38716;BME280;24833;49.324;8.694;2023-04-06T07:57:47;100079.94;;;6.40;54.51
38716;BME280;24833;49.324;8.694;2023-04-06T08:00:15;100081.94;;;6.54;53.52
38716;BME280;24833;49.324;8.694;2023-04-06T08:02:42;100079.66;;;6.59;53.82
38716;BME280;24833;49.324;8.694;2023-04-06T08:05:09;100074.53;;;6.66;53.74
38716;BME280;24833;49.324;8.694;2023-04-06T08:07:36;100086.16;;;6.73;53.87
38716;BME280;24833;49.324;8.694;2023-04-06T08:10:04;100084.34;;;6.81;54.17
38716;BME280;24833;49.324;8.694;2023-04-06T08:12:32;100086.50;;;6.86;53.92
38716;BME280;24833;49.324;8.694;2023-04-06T08:15:00;100090.16;;;6.93;53.69
38716;BME280;24833;49.324;8.694;2023-04-06T08:17:29;100087.50;;;7.01;53.54
38716;BME280;24833;49.324;8.694;2023-04-06T08:19:57;100086.19;;;7.14;53.07
38716;BME280;24833;49.324;8.694;2023-04-06T08:22:24;100075.44;;;7.23;53.07
38716;BME280;24833;49.324;8.694;2023-04-06T08:24:51;100076.06;;;7.33;53.21
38716;BME280;24833;49.324;8.694;2023-04-06T08:27:18;100084.03;;;7.50;52.46
38716;BME280;24833;49.324;8.694;2023-04-06T08:29:46;100082.34;;;7.65;52.75
38716;BME280;24833;49.324;8.694;2023-04-06T08:32:14;100083.16;;;7.74;52.77
38716;BME280;24833;49.324;8.694;2023-04-06T08:34:40;100087.94;;;7.86;51.88
38716;BME280;24833;49.324;8.694;2023-04-06T08:37:08;100078.66;;;7.90;52.47
38716;BME280;24833;49.324;8.694;2023-04-06T08:39:34;100097.38;;;8.05;51.96
38716;BME280;24833;49.324;8.694;2023-04-06T08:42:02;100082.22;;;8.14;52.81
38716;BME280;24833;49.324;8.694;2023-04-06T08:44:32;100081.19;;;8.23;53.66
38716;BME280;24833;49.324;8.694;2023-04-06T08:46:59;100083.63;;;8.33;52.53
38716;BME280;24833;49.324;8.694;2023-04-06T08:49:27;100080.13;;;8.40;52.70
38716;BME280;24833;49.324;8.694;2023-04-06T08:51:55;100079.44;;;8.46;52.26
38716;BME280;24833;49.324;8.694;2023-04-06T08:54:23;100087.56;;;8.53;52.72
38716;BME280;24833;49.324;8.694;2023-04-06T08:56:52;100082.34;;;8.60;52.69
38716;BME280;24833;49.324;8.694;2023-04-06T08:59:20;100080.66;;;8.67;52.35
38716;BME280;24833;49.324;8.694;2023-04-06T09:01:47;100076.28;;;8.74;52.57
38716;BME280;24833;49.324;8.694;2023-04-06T09:04:15;100079.38;;;8.86;52.26
38716;BME280;24833;49.324;8.694;2023-04-06T09:06:43;100084.81;;;8.92;52.87
38716;BME280;24833;49.324;8.694;2023-04-06T09:09:10;100081.91;;;9.02;52.46
38716;BME280;24833;49.324;8.694;2023-04-06T09:11:49;100079.03;;;9.12;52.80
38716;BME280;24833;49.324;8.694;2023-04-06T09:14:17;100082.56;;;9.27;52.70
38716;BME280;24833;49.324;8.694;2023-04-06T09:16:45;100090.31;;;9.37;52.68
38716;BME280;24833;49.324;8.694;2023-04-06T09:19:13;100081.41;;;9.44;52.56
38716;BME280;24833;49.324;8.694;2023-04-06T09:21:40;100084.00;;;9.52;51.95
38716;BME280;24833;49.324;8.694;2023-04-06T09:24:08;100073.44;;;9.59;52.64
38716;BME280;24833;49.324;8.694;2023-04-06T09:26:47;100077.88;;;9.67;53.36
38716;BME280;24833;49.324;8.694;2023-04-06T09:29:24;100073.47;;;9.74;52.23
38716;BME280;24833;49.324;8.694;2023-04-06T09:32:06;100080.53;;;9.81;51.37
38716;BME280;24833;49.324;8.694;2023-04-06T09:34:34;100074.47;;;9.88;52.66
38716;BME280;24833;49.324;8.694;2023-04-06T09:37:18;100070.16;;;10.01;51.38
38716;BME280;24833;49.324;8.694;2023-04-06T09:39:46;100067.03;;;10.13;51.99
38716;BME280;24833;49.324;8.694;2023-04-06T09:42:25;100075.25;;;10.26;53.26
38716;BME280;24833;49.324;8.694;2023-04-06T09:44:53;100072.47;;;10.34;52.61
38716;BME280;24833;49.324;8.694;2023-04-06T09:47:20;100070.69;;;10.41;52.10
38716;BME280;24833;49.324;8.694;2023-04-06T09:49:50;100073.91;;;10.51;52.30
38716;BME280;24833;49.324;8.694;2023-04-06T09:52:22;100067.81;;;10.57;52.52
38716;BME280;24833;49.324;8.694;2023-04-06T09:54:51;100064.00;;;10.67;52.26
38716;BME280;24833;49.324;8.694;2023-04-06T10:00:14;100058.41;;;10.83;51.74
38716;BME280;24833;49.324;8.694;2023-04-06T10:08:08;100056.78;;;11.25;50.96
38716;BME280;24833;49.324;8.694;2023-04-06T10:10:37;100058.28;;;11.34;51.13
38716;BME280;24833;49.324;8.694;2023-04-06T10:13:05;100062.09;;;11.46;51.50
38716;BME280;24833;49.324;8.694;2023-04-06T10:15:33;100053.91;;;11.54;49.92
38716;BME280;24833;49.324;8.694;2023-04-06T10:18:01;100053.38;;;11.65;50.32
38716;BME280;24833;49.324;8.694;2023-04-06T10:23:33;100047.56;;;11.90;51.97
38716;BME280;24833;49.324;8.694;2023-04-06T10:26:02;100049.88;;;11.93;51.34
38716;BME280;24833;49.324;8.694;2023-04-06T10:28:34;100044.34;;;12.01;46.62
38716;BME280;24833;49.324;8.694;2023-04-06T10:31:05;100046.66;;;12.04;49.44
38716;BME280;24833;49.324;8.694;2023-04-06T10:33:33;100046.06;;;12.15;50.35
38716;BME280;24833;49.324;8.694;2023-04-06T10:36:14;100055.19;;;12.27;49.14
38716;BME280;24833;49.324;8.694;2023-04-06T10:38:42;100045.53;;;12.33;48.40
38716;BME280;24833;49.324;8.694;2023-04-06T10:41:11;100043.13;;;12.45;50.08
38716;BME280;24833;49.324;8.694;2023-04-06T10:43:40;100046.00;;;12.57;48.97
38716;BME280;24833;49.324;8.694;2023-04-06T10:46:11;100042.34;;;12.64;49.53
38716;BME280;24833;49.324;8.694;2023-04-06T10:48:43;100042.78;;;12.74;49.23
38716;BME280;24833;49.324;8.694;2023-04-06T10:51:13;100039.88;;;12.82;48.44
38716;BME280;24833;49.324;8.694;2023-04-06T10:53:45;100036.63;;;12.94;49.28
38716;BME280;24833;49.324;8.694;2023-04-06T10:56:17;100037.66;;;13.06;49.17
38716;BME280;24833;49.324;8.694;2023-04-06T10:58:50;100047.41;;;13.20;49.04
38716;BME280;24833;49.324;8.694;2023-04-06T11:01:20;100040.41;;;13.32;49.02
38716;BME280;24833;49.324;8.694;2023-04-06T11:03:50;100045.75;;;13.52;49.35
38716;BME280;24833;49.324;8.694;2023-04-06T11:06:25;100034.78;;;13.67;48.46
38716;BME280;24833;49.324;8.694;2023-04-06T11:08:54;100034.72;;;13.94;50.28
38716;BME280;24833;49.324;8.694;2023-04-06T11:11:24;100035.69;;;14.19;50.04
38716;BME280;24833;49.324;8.694;2023-04-06T11:14:00;100027.50;;;14.45;50.16
38716;BME280;24833;49.324;8.694;2023-04-06T11:16:31;100022.16;;;14.77;48.79
38716;BME280;24833;49.324;8.694;2023-04-06T11:19:01;100023.97;;;15.15;49.87
38716;BME280;24833;49.324;8.694;2023-04-06T11:21:46;100022.81;;;15.54;50.97
38716;BME280;24833;49.324;8.694;2023-04-06T11:24:23;100013.69;;;15.98;47.69
38716;BME280;24833;49.324;8.694;2023-04-06T11:29:22;100012.34;;;16.38;44.90
38716;BME280;24833;49.324;8.694;2023-04-06T11:31:52;100008.53;;;16.45;43.84
38716;BME280;24833;49.324;8.694;2023-04-06T11:34:21;99998.84;;;16.26;42.28
38716;BME280;24833;49.324;8.694;2023-04-06T11:36:54;99998.38;;;16.29;42.23
38716;BME280;24833;49.324;8.694;2023-04-06T11:39:25;99991.66;;;16.20;40.60
38716;BME280;24833;49.324;8.694;2023-04-06T11:42:02;99985.69;;;16.48;44.88
38716;BME280;24833;49.324;8.694;2023-04-06T11:44:37;99994.00;;;16.76;44.83
38716;BME280;24833;49.324;8.694;2023-04-06T11:47:08;99988.78;;;16.93;44.71
38716;BME280;24833;49.324;8.694;2023-04-06T11:49:43;99979.88;;;16.93;41.59
38716;BME280;24833;49.324;8.694;2023-04-06T11:54:48;99981.41;;;16.58;40.50
38716;BME280;24833;49.324;8.694;2023-04-06T11:57:17;99972.97;;;16.67;43.18
38716;BME280;24833;49.324;8.694;2023-04-06T11:59:45;99969.50;;;16.78;42.57
38716;BME280;24833;49.324;8.694;2023-04-06T12:02:12;99970.81;;;16.87;42.77
38716;BME280;24833;49.324;8.694;2023-04-06T12:04:39;99974.03;;;17.07;42.74
38716;BME280;24833;49.324;8.694;2023-04-06T12:07:06;99968.75;;;17.36;42.80
38716;BME280;24833;49.324;8.694;2023-04-06T12:09:33;99962.66;;;17.52;43.31
38716;BME280;24833;49.324;8.694;2023-04-06T12:12:01;99964.38;;;17.58;44.39
38716;BME280;24833;49.324;8.694;2023-04-06T12:14:29;99964.28;;;17.77;45.54
38716;BME280;24833;49.324;8.694;2023-04-06T12:16:58;99961.59;;;18.05;45.46
38716;BME280;24833;49.324;8.694;2023-04-06T12:19:25;99956.38;;;18.27;43.91
38716;BME280;24833;49.324;8.694;2023-04-06T12:21:53;99951.97;;;18.38;39.50
38716;BME280;24833;49.324;8.694;2023-04-06T12:24:21;99962.47;;;18.51;41.12
38716;BME280;24833;49.324;8.694;2023-04-06T12:26:48;99954.31;;;18.46;39.36
38716;BME280;24833;49.324;8.694;2023-04-06T12:29:20;99954.59;;;18.33;39.13
38716;BME280;24833;49.324;8.694;2023-04-06T12:31:47;99957.59;;;18.19;38.99
38716;BME280;24833;49.324;8.694;2023-04-06T12:34:14;99955.75;;;18.08;40.37
38716;BME280;24833;49.324;8.694;2023-04-06T12:36:41;99946.84;;;17.96;38.83
38716;BME280;24833;49.324;8.694;2023-04-06T12:39:08;99950.59;;;17.95;40.25
38716;BME280;24833;49.324;8.694;2023-04-06T12:41:35;99950.91;;;18.10;40.75
38716;BME280;24833;49.324;8.694;2023-04-06T12:44:02;99928.16;;;18.23;40.43
38716;BME280;24833;49.324;8.694;2023-04-06T12:46:29;99927.22;;;18.29;39.16
38716;BME280;24833;49.324;8.694;2023-04-06T12:48:58;99931.97;;;18.39;41.58
38716;BME280;24833;49.324;8.694;2023-04-06T12:51:28;99932.31;;;18.42;38.87
38716;BME280;24833;49.324;8.694;2023-04-06T12:53:55;99927.56;;;18.33;40.48
38716;BME280;24833;49.324;8.694;2023-04-06T12:56:22;99932.75;;;18.22;41.73
38716;BME280;24833;49.324;8.694;2023-04-06T12:58:51;99924.34;;;18.19;40.92
38716;BME280;24833;49.324;8.694;2023-04-06T13:01:19;99934.38;;;18.07;40.13
38716;BME280;24833;49.324;8.694;2023-04-06T13:03:46;99921.91;;;18.06;41.60
38716;BME280;24833;49.324;8.694;2023-04-06T13:06:13;99919.88;;;18.13;40.92
38716;BME280;24833;49.324;8.694;2023-04-06T13:08:42;99931.13;;;18.21;40.37
38716;BME280;24833;49.324;8.694;2023-04-06T13:11:10;99927.56;;;18.33;39.99
38716;BME280;24833;49.324;8.694;2023-04-06T13:13:37;99920.28;;;18.50;38.91
38716;BME280;24833;49.324;8.694;2023-04-06T13:16:07;99920.53;;;18.65;39.15
38716;BME280;24833;49.324;8.694;2023-04-06T13:18:35;99920.09;;;18.68;38.62
38716;BME280;24833;49.324;8.694;2023-04-06T13:21:04;99918.91;;;18.64;37.99
38716;BME280;24833;49.324;8.694;2023-04-06T13:23:31;99917.38;;;18.68;38.53
38716;BME280;24833;49.324;8.694;2023-04-06T13:26:03;99922.50;;;18.53;37.13
38716;BME280;24833;49.324;8.694;2023-04-06T13:28:30;99912.66;;;18.47;38.19